sensor_id;sensor_type;location;lat;lon;timestamp;pressure;altitude;pressure_sealevel;temperature;humidity
28310;BME280;15571;50.974;13.936;2023-05-08T00:02:49;100984.44;;;9.97;100.00
28310;BME280;15571;50.974;13.936;2023-05-08T00:05:53;100981.78;;;9.94;100.00
28310;BME280;15571;50.974;13.936;2023-05-08T00:09:05;100989.63;;;9.92;100.00
28310;BME280;15571;50.974;13.936;2023-05-08T00:12:13;100992.19;;;9.89;100.00
28310;BME280;15571;50.974;13.936;2023-05-08T00:15:24;101002.66;;;9.88;100.00
28310;BME280;15571;50.974;13.936;2023-05-08T00:18:29;100997.38;;;9.85;100.00
28310;BME280;15571;50.974;13.936;2023-05-08T00:21:43;100995.63;;;9.84;100.00
28310;BME280;15571;50.974;13.936;2023-05-08T00:24:47;100997.31;;;9.80;100.00
28310;BME280;15571;50.974;13.936;2023-05-08T00:27:50;100993.81;;;9.76;100.00
28310;BME280;15571;50.974;13.936;2023-05-08T00:30:58;100993.78;;;9.75;100.00
28310;BME280;15571;50.974;13.936;2023-05-08T00:34:06;101002.47;;;9.71;100.00
28310;BME280;15571;50.974;13.936;2023-05-08T00:37:09;100991.97;;;9.68;100.00
28310;BME280;15571;50.974;13.936;2023-05-08T00:40:15;100989.34;;;9.66;100.00
28310;BME280;15571;50.974;13.936;2023-05-08T00:43:18;100987.59;;;9.63;100.00
28310;BME280;15571;50.974;13.936;2023-05-08T00:46:32;100986.69;;;9.61;100.00
28310;BME280;15571;50.974;13.936;2023-05-08T00:49:38;100988.41;;;9.59;100.00
28310;BME280;15571;50.974;13.936;2023-05-08T00:52:43;100997.94;;;9.56;100.00
28310;BME280;15571;50.974;13.936;2023-05-08T00:55:52;100992.66;;;9.53;100.00
28310;BME280;15571;50.974;13.936;2023-05-08T00:58:57;100987.44;;;9.49;100.00
28310;BME280;15571;50.974;13.936;2023-05-08T01:02:00;100999.56;;;9.46;100.00
28310;BME280;15571;50.974;13.936;2023-05-08T01:05:07;100996.03;;;9.41;100.00
28310;BME280;15571;50.974;13.936;2023-05-08T01:08:12;101001.22;;;9.36;100.00
28310;BME280;15571;50.974;13.936;2023-05-08T01:11:20;100998.53;;;9.33;100.00
28310;BME280;15571;50.974;13.936;2023-05-08T01:14:28;100997.63;;;9.29;100.00
28310;BME280;15571;50.974;13.936;2023-05-08T01:17:37;100999.34;;;9.26;100.00
28310;BME280;15571;50.974;13.936;2023-05-08T01:20:44;101002.75;;;9.22;100.00
28310;BME280;15571;50.974;13.936;2023-05-08T01:23:52;100998.34;;;9.16;100.00
28310;BME280;15571;50.974;13.936;2023-05-08T01:27:14;100999.19;;;9.13;100.00
28310;BME280;15571;50.974;13.936;2023-05-08T01:34:02;100994.69;;;9.03;100.00
28310;BME280;15571;50.974;13.936;2023-05-08T01:37:10;100999.03;;;9.01;100.00
28310;BME280;15571;50.974;13.936;2023-05-08T01:40:18;101004.19;;;8.96;100.00
28310;BME280;15571;50.974;13.936;2023-05-08T01:43:28;101005.84;;;8.93;100.00
28310;BME280;15571;50.974;13.936;2023-05-08T01:46:39;101004.94;;;8.89;100.00
28310;BME280;15571;50.974;13.936;2023-05-08T01:49:46;101003.16;;;8.85;100.00
28310;BME280;15571;50.974;13.936;2023-05-08T01:52:55;101011.78;;;8.81;100.00
28310;BME280;15571;50.974;13.936;2023-05-08T01:56:07;101005.66;;;8.77;100.00
28310;BME280;15571;50.974;13.936;2023-05-08T01:59:12;101003.00;;;8.74;100.00
28310;BME280;15571;50.974;13.936;2023-05-08T02:02:20;101006.44;;;8.71;100.00
28310;BME280;15571;50.974;13.936;2023-05-08T02:05:25;101001.16;;;8.68;100.00
28310;BME280;15571;50.974;13.936;2023-05-08T02:08:32;101002.00;;;8.66;100.00
28310;BME280;15571;50.974;13.936;2023-05-08T02:11:40;101007.22;;;8.66;100.00
28310;BME280;15571;50.974;13.936;2023-05-08T02:14:53;101012.38;;;8.63;100.00
28310;BME280;15571;50.974;13.936;2023-05-08T02:18:06;101009.75;;;8.60;100.00
28310;BME280;15571;50.974;13.936;2023-05-08T02:21:13;101010.66;;;8.62;100.00
28310;BME280;15571;50.974;13.936;2023-05-08T02:24:18;101015.81;;;8.59;100.00
28310;BME280;15571;50.974;13.936;2023-05-08T02:27:24;101003.63;;;8.57;100.00
28310;BME280;15571;50.974;13.936;2023-05-08T02:30:28;101014.00;;;8.54;100.00
28310;BME280;15571;50.974;13.936;2023-05-08T02:33:35;101009.63;;;8.53;100.00
28310;BME280;15571;50.974;13.936;2023-05-08T02:36:44;101006.97;;;8.49;100.00
28310;BME280;15571;50.974;13.936;2023-05-08T02:39:50;101006.06;;;8.47;100.00
28310;BME280;15571;50.974;13.936;2023-05-08T02:42:59;101010.38;;;8.46;100.00
28310;BME280;15571;50.974;13.936;2023-05-08T02:46:11;101000.78;;;8.44;100.00
28310;BME280;15571;50.974;13.936;2023-05-08T02:49:25;101005.09;;;8.43;100.00
28310;BME280;15571;50.974;13.936;2023-05-08T02:52:36;101013.81;;;8.42;100.00
28310;BME280;15571;50.974;13.936;2023-05-08T02:55:47;101009.44;;;8.41;100.00
28310;BME280;15571;50.974;13.936;2023-05-08T02:59:01;101015.50;;;8.40;100.00
28310;BME280;15571;50.974;13.936;2023-05-08T03:02:24;101010.22;;;8.37;100.00
28310;BME280;15571;50.974;13.936;2023-05-08T03:05:34;101021.50;;;8.36;100.00
28310;BME280;15571;50.974;13.936;2023-05-08T03:08:44;101013.63;;;8.33;100.00
28310;BME280;15571;50.974;13.936;2023-05-08T03:11:49;101016.22;;;8.31;100.00
28310;BME280;15571;50.974;13.936;2023-05-08T03:14:55;101017.91;;;8.28;100.00
28310;BME280;15571;50.974;13.936;2023-05-08T03:18:05;101022.22;;;8.25;100.00
28310;BME280;15571;50.974;13.936;2023-05-08T03:21:10;101016.06;;;8.22;100.00
28310;BME280;15571;50.974;13.936;2023-05-08T03:24:19;101013.38;;;8.17;100.00
28310;BME280;15571;50.974;13.936;2023-05-08T03:27:25;101027.28;;;8.16;100.00
28310;BME280;15571;50.974;13.936;2023-05-08T03:30:30;101026.28;;;8.09;100.00
28310;BME280;15571;50.974;13.936;2023-05-08T03:33:46;101027.19;;;8.10;100.00
28310;BME280;15571;50.974;13.936;2023-05-08T03:36:56;101022.81;;;8.10;100.00
28310;BME280;15571;50.974;13.936;2023-05-08T03:40:04;101021.97;;;8.10;100.00
28310;BME280;15571;50.974;13.936;2023-05-08T03:43:12;101022.81;;;8.10;100.00
28310;BME280;15571;50.974;13.936;2023-05-08T03:46:18;101024.56;;;8.10;100.00
28310;BME280;15571;50.974;13.936;2023-05-08T03:49:24;101023.66;;;8.08;100.00
28310;BME280;15571;50.974;13.936;2023-05-08T03:52:33;101014.91;;;8.06;100.00
28310;BME280;15571;50.974;13.936;2023-05-08T03:55:38;101028.81;;;8.05;100.00
28310;BME280;15571;50.974;13.936;2023-05-08T03:58:46;101029.63;;;8.02;100.00
28310;BME280;15571;50.974;13.936;2023-05-08T04:01:53;101030.47;;;8.00;100.00
28310;BME280;15571;50.974;13.936;2023-05-08T04:04:59;101028.72;;;7.99;100.00
28310;BME280;15571;50.974;13.936;2023-05-08T04:08:08;101033.84;;;7.95;100.00
28310;BME280;15571;50.974;13.936;2023-05-08T04:11:16;101040.84;;;7.97;100.00
28310;BME280;15571;50.974;13.936;2023-05-08T04:14:30;101044.28;;;7.95;100.00
28310;BME280;15571;50.974;13.936;2023-05-08T04:17:46;101043.41;;;7.95;100.00
28310;BME280;15571;50.974;13.936;2023-05-08T04:20:53;101044.28;;;7.95;100.00
28310;BME280;15571;50.974;13.936;2023-05-08T04:23:59;101054.72;;;7.95;100.00
28310;BME280;15571;50.974;13.936;2023-05-08T04:27:04;101043.41;;;7.95;100.00
28310;BME280;15571;50.974;13.936;2023-05-08T04:30:17;101055.63;;;7.96;100.00
28310;BME280;15571;50.974;13.936;2023-05-08T04:33:19;101052.16;;;7.97;100.00
28310;BME280;15571;50.974;13.936;2023-05-08T04:36:34;101057.38;;;7.99;100.00
28310;BME280;15571;50.974;13.936;2023-05-08T04:39:39;101057.38;;;7.99;100.00
28310;BME280;15571;50.974;13.936;2023-05-08T04:42:45;101056.53;;;8.00;100.00
28310;BME280;15571;50.974;13.936;2023-05-08T04:45:50;101062.66;;;8.02;100.00
28310;BME280;15571;50.974;13.936;2023-05-08T04:48:54;101067.03;;;8.03;100.00
28310;BME280;15571;50.974;13.936;2023-05-08T04:51:57;101067.97;;;8.06;100.00
28310;BME280;15571;50.974;13.936;2023-05-08T04:54:59;101068.91;;;8.10;100.00
28310;BME280;15571;50.974;13.936;2023-05-08T04:58:06;101075.88;;;8.11;100.00
28310;BME280;15571;50.974;13.936;2023-05-08T05:01:16;101076.88;;;8.18;100.00
28310;BME280;15571;50.974;13.936;2023-05-08T05:04:20;101079.56;;;8.22;100.00
28310;BME280;15571;50.974;13.936;2023-05-08T05:07:24;101082.19;;;8.25;100.00
28310;BME280;15571;50.974;13.936;2023-05-08T05:10:28;101074.50;;;8.32;100.00
28310;BME280;15571;50.974;13.936;2023-05-08T05:13:34;101077.22;;;8.39;100.00
28310;BME280;15571;50.974;13.936;2023-05-08T05:16:36;101076.47;;;8.45;100.00
28310;BME280;15571;50.974;13.936;2023-05-08T05:19:39;101080.88;;;8.48;100.00
28310;BME280;15571;50.974;13.936;2023-05-08T05:22:45;101078.34;;;8.52;100.00
28310;BME280;15571;50.974;13.936;2023-05-08T05:25:48;101076.75;;;8.61;100.00
28310;BME280;15571;50.974;13.936;2023-05-08T05:28:51;101089.00;;;8.65;100.00
28310;BME280;15571;50.974;13.936;2023-05-08T05:31:55;101077.84;;;8.74;100.00
28310;BME280;15571;50.974;13.936;2023-05-08T05:34:59;101077.06;;;8.79;100.00
28310;BME280;15571;50.974;13.936;2023-05-08T05:38:05;101078.91;;;8.86;100.00
28310;BME280;15571;50.974;13.936;2023-05-08T05:41:14;101075.50;;;8.94;100.00
28310;BME280;15571;50.974;13.936;2023-05-08T05:44:19;101084.31;;;8.99;100.00
28310;BME280;15571;50.974;13.936;2023-05-08T05:47:24;101078.31;;;9.06;100.00
28310;BME280;15571;50.974;13.936;2023-05-08T05:50:29;101079.28;;;9.14;100.00
28310;BME280;15571;50.974;13.936;2023-05-08T05:53:35;101082.88;;;9.23;100.00
28310;BME280;15571;50.974;13.936;2023-05-08T05:56:50;101077.78;;;9.30;100.00
28310;BME280;15571;50.974;13.936;2023-05-08T05:59:59;101082.22;;;9.38;100.00
28310;BME280;15571;50.974;13.936;2023-05-08T06:03:14;101086.66;;;9.43;100.00
28310;BME280;15571;50.974;13.936;2023-05-08T06:06:18;101084.13;;;9.49;100.00
28310;BME280;15571;50.974;13.936;2023-05-08T06:09:29;101081.59;;;9.56;100.00
28310;BME280;15571;50.974;13.936;2023-05-08T06:12:31;101087.78;;;9.62;100.00
28310;BME280;15571;50.974;13.936;2023-05-08T06:15:40;101085.22;;;9.70;100.00
28310;BME280;15571;50.974;13.936;2023-05-08T06:18:43;101088.78;;;9.75;100.00
28310;BME280;15571;50.974;13.936;2023-05-08T06:21:49;101079.25;;;9.80;100.00
28310;BME280;15571;50.974;13.936;2023-05-08T06:24:54;101076.69;;;9.84;100.00
28310;BME280;15571;50.974;13.936;2023-05-08T06:27:58;101075.88;;;9.89;100.00
28310;BME280;15571;50.974;13.936;2023-05-08T06:31:10;101075.88;;;9.89;100.00
28310;BME280;15571;50.974;13.936;2023-05-08T06:34:16;101072.47;;;9.96;100.00
28310;BME280;15571;50.974;13.936;2023-05-08T06:37:20;101070.78;;;10.03;100.00
28310;BME280;15571;50.974;13.936;2023-05-08T06:40:25;101082.19;;;10.11;100.00
28310;BME280;15571;50.974;13.936;2023-05-08T06:43:28;101080.53;;;10.17;100.00
28310;BME280;15571;50.974;13.936;2023-05-08T06:46:39;101084.09;;;10.25;100.00
28310;BME280;15571;50.974;13.936;2023-05-08T06:49:46;101077.19;;;10.32;100.00
28310;BME280;15571;50.974;13.936;2023-05-08T06:52:51;101073.78;;;10.39;100.00
28310;BME280;15571;50.974;13.936;2023-05-08T06:55:54;101070.34;;;10.45;100.00
28310;BME280;15571;50.974;13.936;2023-05-08T06:58:58;101067.78;;;10.51;100.00
28310;BME280;15571;50.974;13.936;2023-05-08T07:02:02;101064.31;;;10.56;100.00
28310;BME280;15571;50.974;13.936;2023-05-08T07:05:11;101066.97;;;10.61;100.00
28310;BME280;15571;50.974;13.936;2023-05-08T07:08:17;101072.25;;;10.66;100.00
28310;BME280;15571;50.974;13.936;2023-05-08T07:11:39;101071.44;;;10.73;100.00
28310;BME280;15571;50.974;13.936;2023-05-08T07:14:44;101059.25;;;10.78;100.00
28310;BME280;15571;50.974;13.936;2023-05-08T07:17:52;101069.75;;;10.83;100.00
28310;BME280;15571;50.974;13.936;2023-05-08T07:20:56;101073.31;;;10.89;100.00
28310;BME280;15571;50.974;13.936;2023-05-08T07:24:03;101066.34;;;10.95;100.00
28310;BME280;15571;50.974;13.936;2023-05-08T07:27:06;101063.75;;;10.99;100.00
28310;BME280;15571;50.974;13.936;2023-05-08T07:30:16;101067.28;;;11.04;100.00
28310;BME280;15571;50.974;13.936;2023-05-08T07:33:24;101066.44;;;11.13;100.00
28310;BME280;15571;50.974;13.936;2023-05-08T07:36:37;101074.38;;;11.21;100.00
28310;BME280;15571;50.974;13.936;2023-05-08T07:39:43;101070.91;;;11.25;100.00
28310;BME280;15571;50.974;13.936;2023-05-08T07:42:48;101070.94;;;11.30;100.00
28310;BME280;15571;50.974;13.936;2023-05-08T07:45:54;101062.19;;;11.32;100.00
28310;BME280;15571;50.974;13.936;2023-05-08T07:49:03;101062.22;;;11.39;100.00
28310;BME280;15571;50.974;13.936;2023-05-08T07:52:06;101067.47;;;11.42;100.00
28310;BME280;15571;50.974;13.936;2023-05-08T07:55:17;101068.38;;;11.45;100.00
28310;BME280;15571;50.974;13.936;2023-05-08T07:58:24;101065.78;;;11.50;100.00
28310;BME280;15571;50.974;13.936;2023-05-08T08:01:31;101068.41;;;11.55;100.00
28310;BME280;15571;50.974;13.936;2023-05-08T08:04:39;101061.44;;;11.58;100.00
28310;BME280;15571;50.974;13.936;2023-05-08T08:07:45;101065.81;;;11.62;100.00
28310;BME280;15571;50.974;13.936;2023-05-08T08:10:48;101071.09;;;11.65;100.00
28310;BME280;15571;50.974;13.936;2023-05-08T08:13:51;101056.22;;;11.72;100.00
28310;BME280;15571;50.974;13.936;2023-05-08T08:16:55;101058.88;;;11.77;100.00
28310;BME280;15571;50.974;13.936;2023-05-08T08:20:00;101058.00;;;11.81;100.00
28310;BME280;15571;50.974;13.936;2023-05-08T08:23:08;101049.28;;;11.87;100.00
28310;BME280;15571;50.974;13.936;2023-05-08T08:26:09;101048.44;;;11.92;100.00
28310;BME280;15571;50.974;13.936;2023-05-08T08:29:17;101046.72;;;11.97;100.00
28310;BME280;15571;50.974;13.936;2023-05-08T08:32:33;101047.59;;;12.04;100.00
28310;BME280;15571;50.974;13.936;2023-05-08T08:35:46;101044.97;;;12.09;100.00
28310;BME280;15571;50.974;13.936;2023-05-08T08:39:04;101047.63;;;12.12;100.00
28310;BME280;15571;50.974;13.936;2023-05-08T08:42:07;101057.25;;;12.19;100.00
28310;BME280;15571;50.974;13.936;2023-05-08T08:45:10;101052.00;;;12.22;100.00
28310;BME280;15571;50.974;13.936;2023-05-08T08:48:22;101052.00;;;12.27;100.00
28310;BME280;15571;50.974;13.936;2023-05-08T08:51:35;101046.75;;;12.28;100.00
28310;BME280;15571;50.974;13.936;2023-05-08T08:54:55;101049.38;;;12.33;100.00
28310;BME280;15571;50.974;13.936;2023-05-08T08:58:03;101044.13;;;12.39;100.00
28310;BME280;15571;50.974;13.936;2023-05-08T09:01:13;101049.41;;;12.44;100.00
28310;BME280;15571;50.974;13.936;2023-05-08T09:04:25;101055.50;;;12.54;100.00
28310;BME280;15571;50.974;13.936;2023-05-08T09:07:42;101045.00;;;12.60;100.00
28310;BME280;15571;50.974;13.936;2023-05-08T09:10:50;101042.38;;;12.66;100.00
28310;BME280;15571;50.974;13.936;2023-05-08T09:14:00;101044.13;;;12.69;100.00
28310;BME280;15571;50.974;13.936;2023-05-08T09:17:06;101036.22;;;12.75;100.00
28310;BME280;15571;50.974;13.936;2023-05-08T09:20:12;101036.22;;;12.81;100.00
28310;BME280;15571;50.974;13.936;2023-05-08T09:23:20;101032.72;;;12.82;98.78
28310;BME280;15571;50.974;13.936;2023-05-08T09:26:33;101030.94;;;12.87;97.47
28310;BME280;15571;50.974;13.936;2023-05-08T09:29:46;101030.06;;;12.93;98.08
28310;BME280;15571;50.974;13.936;2023-05-08T09:33:02;101028.31;;;12.97;98.41
28310;BME280;15571;50.974;13.936;2023-05-08T09:36:04;101025.69;;;13.00;98.40
28310;BME280;15571;50.974;13.936;2023-05-08T09:39:22;101021.28;;;13.02;98.92
28310;BME280;15571;50.974;13.936;2023-05-08T09:42:30;101028.28;;;13.09;97.43
28310;BME280;15571;50.974;13.936;2023-05-08T09:45:41;101022.09;;;13.16;96.93
28310;BME280;15571;50.974;13.936;2023-05-08T09:48:46;101016.84;;;13.22;97.09
28310;BME280;15571;50.974;13.936;2023-05-08T09:52:01;101020.31;;;13.28;97.24
28310;BME280;15571;50.974;13.936;2023-05-08T09:55:13;101011.56;;;13.32;97.19
28310;BME280;15571;50.974;13.936;2023-05-08T09:58:22;101016.78;;;13.38;96.88
28310;BME280;15571;50.974;13.936;2023-05-08T10:01:28;101011.53;;;13.43;95.06
28310;BME280;15571;50.974;13.936;2023-05-08T10:04:32;101014.97;;;13.52;94.81
28310;BME280;15571;50.974;13.936;2023-05-08T10:07:36;101014.09;;;13.57;93.95
28310;BME280;15571;50.974;13.936;2023-05-08T10:10:48;101011.47;;;13.57;92.14
28310;BME280;15571;50.974;13.936;2023-05-08T10:13:53;101014.91;;;13.62;95.24
28310;BME280;15571;50.974;13.936;2023-05-08T10:17:03;101007.91;;;13.65;95.38
28310;BME280;15571;50.974;13.936;2023-05-08T10:20:10;101003.47;;;13.70;94.30
28310;BME280;15571;50.974;13.936;2023-05-08T10:23:30;101007.84;;;13.73;92.69
28310;BME280;15571;50.974;13.936;2023-05-08T10:26:39;101001.66;;;13.83;91.92
28310;BME280;15571;50.974;13.936;2023-05-08T10:29:51;100992.84;;;13.91;92.38
28310;BME280;15571;50.974;13.936;2023-05-08T10:33:00;100984.03;;;13.95;92.86
28310;BME280;15571;50.974;13.936;2023-05-08T10:36:19;100983.13;;;13.99;93.67
28310;BME280;15571;50.974;13.936;2023-05-08T10:39:26;100985.75;;;13.99;93.59
28310;BME280;15571;50.974;13.936;2023-05-08T10:42:32;100979.63;;;14.00;92.90
28310;BME280;15571;50.974;13.936;2023-05-08T10:45:36;100983.06;;;14.05;93.06
28310;BME280;15571;50.974;13.936;2023-05-08T10:48:45;100972.53;;;14.08;93.03
28310;BME280;15571;50.974;13.936;2023-05-08T10:51:55;100975.97;;;14.13;89.55
28310;BME280;15571;50.974;13.936;2023-05-08T11:01:45;100961.81;;;14.28;84.75
28310;BME280;15571;50.974;13.936;2023-05-08T11:04:50;100956.50;;;14.33;79.74
28310;BME280;15571;50.974;13.936;2023-05-08T11:08:02;100955.59;;;14.36;77.23
28310;BME280;15571;50.974;13.936;2023-05-08T11:11:12;100952.91;;;14.40;80.21
28310;BME280;15571;50.974;13.936;2023-05-08T11:14:20;100954.63;;;14.46;79.18
28310;BME280;15571;50.974;13.936;2023-05-08T11:17:25;100951.06;;;14.52;79.07
28310;BME280;15571;50.974;13.936;2023-05-08T11:20:36;100942.22;;;14.57;77.31
28310;BME280;15571;50.974;13.936;2023-05-08T11:23:49;100942.16;;;14.65;68.76
28310;BME280;15571;50.974;13.936;2023-05-08T11:26:57;100939.47;;;14.73;67.89
28310;BME280;15571;50.974;13.936;2023-05-08T11:30:18;100933.25;;;14.78;67.98
28310;BME280;15571;50.974;13.936;2023-05-08T11:33:25;100941.09;;;14.82;70.96
28310;BME280;15571;50.974;13.936;2023-05-08T11:36:35;100934.09;;;14.81;65.28
28310;BME280;15571;50.974;13.936;2023-05-08T11:39:47;100931.38;;;14.88;62.82
28310;BME280;15571;50.974;13.936;2023-05-08T11:42:54;100932.13;;;14.97;57.21
28310;BME280;15571;50.974;13.936;2023-05-08T11:45:59;100925.06;;;15.02;56.68
28310;BME280;15571;50.974;13.936;2023-05-08T11:49:12;100931.06;;;15.12;52.36
28310;BME280;15571;50.974;13.936;2023-05-08T11:52:20;100928.38;;;15.18;52.83
28310;BME280;15571;50.974;13.936;2023-05-08T11:55:25;100923.94;;;15.20;53.89
28310;BME280;15571;50.974;13.936;2023-05-08T11:58:28;100927.50;;;15.17;48.62
28310;BME280;15571;50.974;13.936;2023-05-08T12:01:34;100923.03;;;15.21;48.94
28310;BME280;15571;50.974;13.936;2023-05-08T12:04:48;100925.66;;;15.24;45.43
28310;BME280;15571;50.974;13.936;2023-05-08T12:07:58;100924.66;;;15.33;47.52
28310;BME280;15571;50.974;13.936;2023-05-08T12:11:10;100931.56;;;15.41;45.44
28310;BME280;15571;50.974;13.936;2023-05-08T12:14:16;100920.88;;;15.51;45.98
28310;BME280;15571;50.974;13.936;2023-05-08T12:17:25;100914.59;;;15.58;46.82
28310;BME280;15571;50.974;13.936;2023-05-08T12:20:37;100914.56;;;15.61;45.78
28310;BME280;15571;50.974;13.936;2023-05-08T12:24:00;100913.53;;;15.71;45.43
28310;BME280;15571;50.974;13.936;2023-05-08T12:27:08;100915.22;;;15.74;46.64
28310;BME280;15571;50.974;13.936;2023-05-08T12:30:23;100920.53;;;15.72;45.06
28310;BME280;15571;50.974;13.936;2023-05-08T12:33:34;100918.75;;;15.75;43.49
28310;BME280;15571;50.974;13.936;2023-05-08T12:36:56;100916.03;;;15.78;43.38
28310;BME280;15571;50.974;13.936;2023-05-08T12:40:05;100915.09;;;15.85;42.79
28310;BME280;15571;50.974;13.936;2023-05-08T12:43:10;100914.16;;;15.89;43.00
28310;BME280;15571;50.974;13.936;2023-05-08T12:46:21;100913.22;;;15.93;43.03
28310;BME280;15571;50.974;13.936;2023-05-08T12:49:30;100904.34;;;15.96;42.54
28310;BME280;15571;50.974;13.936;2023-05-08T12:52:39;100902.56;;;15.98;41.86
28310;BME280;15571;50.974;13.936;2023-05-08T12:55:49;100898.09;;;16.01;42.43
28310;BME280;15571;50.974;13.936;2023-05-08T12:58:57;100891.84;;;16.07;40.67
28310;BME280;15571;50.974;13.936;2023-05-08T13:02:02;100891.69;;;16.16;41.40
28310;BME280;15571;50.974;13.936;2023-05-08T13:05:16;100896.91;;;16.20;41.06
28310;BME280;15571;50.974;13.936;2023-05-08T13:08:35;100895.03;;;16.25;37.85
28310;BME280;15571;50.974;13.936;2023-05-08T13:11:42;100895.81;;;16.31;38.86
28310;BME280;15571;50.974;13.936;2023-05-08T13:14:48;100896.66;;;16.33;39.68
28310;BME280;15571;50.974;13.936;2023-05-08T13:17:51;100893.13;;;16.34;39.43
28310;BME280;15571;50.974;13.936;2023-05-08T13:20:58;100890.41;;;16.38;39.36
28310;BME280;15571;50.974;13.936;2023-05-08T13:24:09;100893.03;;;16.39;38.50
28310;BME280;15571;50.974;13.936;2023-05-08T13:27:16;100890.31;;;16.44;37.41
28310;BME280;15571;50.974;13.936;2023-05-08T13:30:19;100885.78;;;16.49;37.85
28310;BME280;15571;50.974;13.936;2023-05-08T13:33:29;100874.28;;;16.52;36.88
28310;BME280;15571;50.974;13.936;2023-05-08T13:36:40;100875.94;;;16.57;37.24
28310;BME280;15571;50.974;13.936;2023-05-08T13:39:47;100875.94;;;16.57;36.43
28310;BME280;15571;50.974;13.936;2023-05-08T13:42:53;100868.84;;;16.59;36.19
28310;BME280;15571;50.974;13.936;2023-05-08T13:45:58;100859.06;;;16.64;37.30
28310;BME280;15571;50.974;13.936;2023-05-08T13:49:00;100859.91;;;16.65;37.58
28310;BME280;15571;50.974;13.936;2023-05-08T13:52:02;100856.44;;;16.64;37.28
28310;BME280;15571;50.974;13.936;2023-05-08T13:55:20;100845.81;;;16.66;37.80
28310;BME280;15571;50.974;13.936;2023-05-08T13:58:26;100841.38;;;16.68;34.90
28310;BME280;15571;50.974;13.936;2023-05-08T14:01:37;100847.31;;;16.78;36.04
28310;BME280;15571;50.974;13.936;2023-05-08T14:04:40;100856.88;;;16.84;36.51
28310;BME280;15571;50.974;13.936;2023-05-08T14:07:52;100850.66;;;16.86;38.24
28310;BME280;15571;50.974;13.936;2023-05-08T14:10:59;100853.19;;;16.91;40.55
28310;BME280;15571;50.974;13.936;2023-05-08T14:14:09;100847.84;;;16.95;44.00
28310;BME280;15571;50.974;13.936;2023-05-08T14:17:19;100843.41;;;16.98;44.01
28310;BME280;15571;50.974;13.936;2023-05-08T14:20:21;100844.19;;;17.01;45.97
28310;BME280;15571;50.974;13.936;2023-05-08T14:23:32;100845.09;;;17.02;46.04
28310;BME280;15571;50.974;13.936;2023-05-08T14:26:42;100842.44;;;17.00;43.78
28310;BME280;15571;50.974;13.936;2023-05-08T14:29:46;100846.94;;;16.96;42.28
28310;BME280;15571;50.974;13.936;2023-05-08T14:32:49;100835.44;;;16.99;43.33
28310;BME280;15571;50.974;13.936;2023-05-08T14:35:55;100841.53;;;17.03;46.42
28310;BME280;15571;50.974;13.936;2023-05-08T14:39:01;100830.00;;;17.05;48.59
28310;BME280;15571;50.974;13.936;2023-05-08T14:42:04;100831.72;;;17.08;50.38
28310;BME280;15571;50.974;13.936;2023-05-08T14:45:08;100826.41;;;17.08;52.03
28310;BME280;15571;50.974;13.936;2023-05-08T14:48:13;100824.56;;;17.13;54.96
28310;BME280;15571;50.974;13.936;2023-05-08T14:51:23;100825.31;;;17.18;51.48
28310;BME280;15571;50.974;13.936;2023-05-08T14:54:32;100820.84;;;17.20;51.59
28310;BME280;15571;50.974;13.936;2023-05-08T14:57:35;100812.91;;;17.20;54.41
28310;BME280;15571;50.974;13.936;2023-05-08T15:00:42;100812.00;;;17.21;56.00
28310;BME280;15571;50.974;13.936;2023-05-08T15:03:50;100808.41;;;17.24;57.54
28310;BME280;15571;50.974;13.936;2023-05-08T15:06:53;100810.16;;;17.25;59.41
28310;BME280;15571;50.974;13.936;2023-05-08T15:10:04;100816.25;;;17.29;60.07
28310;BME280;15571;50.974;13.936;2023-05-08T15:13:14;100812.75;;;17.28;60.55
28310;BME280;15571;50.974;13.936;2023-05-08T15:16:17;100808.34;;;17.27;60.75
28310;BME280;15571;50.974;13.936;2023-05-08T15:19:23;100811.91;;;17.26;61.30
28310;BME280;15571;50.974;13.936;2023-05-08T15:22:25;100810.22;;;17.22;61.20
28310;BME280;15571;50.974;13.936;2023-05-08T15:25:37;100814.66;;;17.21;62.80
28310;BME280;15571;50.974;13.936;2023-05-08T15:28:46;100809.31;;;17.23;63.12
28310;BME280;15571;50.974;13.936;2023-05-08T15:31:54;100804.88;;;17.25;62.88
28310;BME280;15571;50.974;13.936;2023-05-08T15:34:58;100811.81;;;17.29;64.19
28310;BME280;15571;50.974;13.936;2023-05-08T15:38:00;100798.56;;;17.31;65.00
28310;BME280;15571;50.974;13.936;2023-05-08T15:41:10;100803.91;;;17.27;61.49
28310;BME280;15571;50.974;13.936;2023-05-08T15:44:21;100802.97;;;17.30;63.75
28310;BME280;15571;50.974;13.936;2023-05-08T15:47:24;100803.84;;;17.31;66.82
28310;BME280;15571;50.974;13.936;2023-05-08T15:50:28;100803.84;;;17.31;63.67
28310;BME280;15571;50.974;13.936;2023-05-08T15:53:33;100808.16;;;17.35;65.61
28310;BME280;15571;50.974;13.936;2023-05-08T15:56:50;100803.78;;;17.34;66.88
28310;BME280;15571;50.974;13.936;2023-05-08T15:59:55;100808.31;;;17.29;66.76
28310;BME280;15571;50.974;13.936;2023-05-08T16:02:58;100804.81;;;17.26;66.57
28310;BME280;15571;50.974;13.936;2023-05-08T16:10:47;100794.13;;;17.31;69.26
28310;BME280;15571;50.974;13.936;2023-05-08T16:13:51;100791.53;;;17.30;68.63
28310;BME280;15571;50.974;13.936;2023-05-08T16:17:06;100790.63;;;17.29;69.08
28310;BME280;15571;50.974;13.936;2023-05-08T16:20:14;100789.84;;;17.25;70.08
28310;BME280;15571;50.974;13.936;2023-05-08T16:23:16;100789.84;;;17.25;67.20